createdAt,value
2022-09-04T00:03:14.613Z,99688.00
2022-09-04T00:06:07.361Z,99680.47
2022-09-04T00:09:06.913Z,99684.06
2022-09-04T00:12:10.133Z,99683.28
2022-09-04T00:15:01.360Z,99687.66
2022-09-04T00:17:57.972Z,99684.16
2022-09-04T00:20:49.901Z,99684.59
2022-09-04T00:23:44.542Z,99682.66
2022-09-04T00:26:45.006Z,99687.72
2022-09-04T00:29:54.183Z,99693.16
2022-09-04T00:32:51.285Z,99687.88
2022-09-04T00:35:40.521Z,99690.75
2022-09-04T00:38:35.531Z,99692.84
2022-09-04T00:41:30.781Z,99688.22
2022-09-04T00:44:57.826Z,99691.09
2022-09-04T00:47:50.920Z,99691.81
2022-09-04T00:51:01.725Z,99685.56
2022-09-04T00:53:49.969Z,99687.44
2022-09-04T00:57:13.833Z,99688.50
2022-09-04T01:00:18.203Z,99689.78
2022-09-04T01:03:15.507Z,99692.03
2022-09-04T01:06:04.349Z,99702.41
2022-09-04T01:09:21.816Z,99703.63
2022-09-04T01:12:22.184Z,99712.09
2022-09-04T01:15:25.432Z,99708.53
2022-09-04T01:19:02.568Z,99705.41
2022-09-04T01:22:12.970Z,99703.81
2022-09-04T01:25:29.138Z,99708.16
2022-09-04T01:28:27.540Z,99712.56
2022-09-04T01:31:25.228Z,99706.25
2022-09-04T01:34:33.888Z,99704.66
2022-09-04T01:37:49.747Z,99703.28
2022-09-04T01:40:53.169Z,99703.13
2022-09-04T01:43:39.502Z,99710.28
2022-09-04T01:46:58.107Z,99715.44
2022-09-04T01:49:53.339Z,99713.88
2022-09-04T01:53:00.820Z,99702.97
2022-09-04T01:56:03.851Z,99716.06
2022-09-04T01:58:58.408Z,99717.69
2022-09-04T02:01:52.983Z,99706.84
2022-09-04T02:04:45.257Z,99707.50
2022-09-04T02:07:55.943Z,99711.50
2022-09-04T02:11:28.180Z,99711.69
2022-09-04T02:14:13.858Z,99714.31
2022-09-04T02:17:09.089Z,99706.63
2022-09-04T02:20:03.665Z,99711.44
2022-09-04T02:23:11.255Z,99710.72
2022-09-04T02:26:22.468Z,99713.75
2022-09-04T02:29:28.475Z,99710.63
2022-09-04T02:32:29.334Z,99706.91
2022-09-04T02:35:34.898Z,99707.94
2022-09-04T02:38:51.602Z,99709.34
2022-09-04T02:41:50.380Z,99715.69
2022-09-04T02:45:04.665Z,99717.28
2022-09-04T02:48:29.377Z,99711.56
2022-09-04T02:51:52.419Z,99710.81
2022-09-04T02:55:00.221Z,99709.44
2022-09-04T02:58:11.685Z,99715.38
2022-09-04T03:01:21.776Z,99711.59
2022-09-04T03:04:22.241Z,99715.97
2022-09-04T03:07:23.950Z,99709.06
2022-09-04T03:10:18.498Z,99718.75
2022-09-04T03:13:09.875Z,99716.75
2022-09-04T03:16:12.465Z,99716.97
2022-09-04T03:19:38.882Z,99726.03
2022-09-04T03:22:30.379Z,99716.94
2022-09-04T03:25:40.497Z,99723.28
2022-09-04T03:28:31.142Z,99724.88
2022-09-04T03:31:34.874Z,99719.91
2022-09-04T03:34:26.130Z,99727.63
2022-09-04T03:37:22.536Z,99724.88
2022-09-04T03:40:10.300Z,99726.06
2022-09-04T03:43:20.508Z,99724.09
2022-09-04T03:46:17.585Z,99722.72
2022-09-04T03:49:08.807Z,99722.69
2022-09-04T03:52:52.483Z,99721.88
2022-09-04T03:55:56.641Z,99730.94
2022-09-04T03:59:02.647Z,99735.28
2022-09-04T04:01:53.460Z,99738.00
2022-09-04T04:04:52.079Z,99734.16
2022-09-04T04:07:51.175Z,99730.75
2022-09-04T04:11:15.644Z,99733.41
2022-09-04T04:14:06.896Z,99734.13
2022-09-04T04:16:55.906Z,99733.66
2022-09-04T04:20:04.928Z,99741.44
2022-09-04T04:23:04.706Z,99755.16
2022-09-04T04:26:08.160Z,99752.63
2022-09-04T04:29:25.328Z,99759.44
2022-09-04T04:32:33.211Z,99757.69
2022-09-04T04:35:28.005Z,99765.63
2022-09-04T04:38:47.336Z,99759.69
2022-09-04T04:42:05.117Z,99766.63
2022-09-04T04:45:45.035Z,99761.00
2022-09-04T04:49:04.693Z,99758.81
2022-09-04T04:52:07.984Z,99755.25
2022-09-04T04:55:11.472Z,99750.47
2022-09-04T04:58:07.255Z,99754.69
2022-09-04T05:00:55.819Z,99752.81
2022-09-04T05:04:15.601Z,99746.19
2022-09-04T05:07:19.071Z,99743.25
2022-09-04T05:10:31.227Z,99756.84
2022-09-04T05:13:16.186Z,99756.47
2022-09-04T05:16:34.214Z,99762.06
2022-09-04T05:19:43.395Z,99771.94
2022-09-04T05:22:43.120Z,99767.22
2022-09-04T05:25:50.582Z,99772.13
2022-09-04T05:29:02.855Z,99784.53
2022-09-04T05:31:53.249Z,99783.78
2022-09-04T05:34:51.300Z,99786.72
2022-09-04T05:38:06.787Z,99791.38
2022-09-04T05:41:05.004Z,99787.69
2022-09-04T05:44:08.845Z,99788.22
2022-09-04T05:47:21.978Z,99791.13
2022-09-04T05:50:31.810Z,99788.44
2022-09-04T05:53:42.863Z,99792.88
2022-09-04T05:56:28.070Z,99787.56
2022-09-04T05:59:19.330Z,99787.44
2022-09-04T06:02:26.330Z,99787.44
2022-09-04T06:05:28.140Z,99780.16
2022-09-04T06:08:38.278Z,99792.81
2022-09-04T06:11:54.575Z,99786.75
2022-09-04T06:14:55.532Z,99787.72
2022-09-04T06:18:28.429Z,99790.28
2022-09-04T06:21:31.869Z,99789.13
2022-09-04T06:24:55.828Z,99790.50
2022-09-04T06:27:50.048Z,99807.00
2022-09-04T06:30:49.499Z,99796.88
2022-09-04T06:34:00.385Z,99797.41
2022-09-04T06:37:11.225Z,99794.78
2022-09-04T06:39:59.480Z,99800.81
2022-09-04T06:42:50.270Z,99811.53
2022-09-04T06:46:04.130Z,99815.75
2022-09-04T06:48:59.713Z,99809.44
2022-09-04T06:51:59.684Z,99810.75
2022-09-04T06:55:02.437Z,99809.81
2022-09-04T06:58:06.215Z,99809.56
2022-09-04T07:00:55.165Z,99807.19
2022-09-04T07:03:58.132Z,99799.56
2022-09-04T07:06:43.254Z,99805.50
2022-09-04T07:09:35.083Z,99811.38
2022-09-04T07:12:37.995Z,99822.34
2022-09-04T07:15:33.354Z,99822.66
2022-09-04T07:18:48.054Z,99816.56
2022-09-04T07:21:35.944Z,99818.25
2022-09-04T07:24:39.338Z,99820.69
2022-09-04T07:27:58.431Z,99817.03
2022-09-04T07:31:08.510Z,99820.91
2022-09-04T07:34:23.978Z,99819.78
2022-09-04T07:37:08.991Z,99815.44
2022-09-04T07:40:05.333Z,99821.03
2022-09-04T07:43:12.739Z,99820.28
2022-09-04T07:46:13.311Z,99824.63
2022-09-04T07:49:26.602Z,99826.50
2022-09-04T07:52:43.767Z,99829.41
2022-09-04T07:55:40.609Z,99823.28
2022-09-04T07:58:46.387Z,99824.44
2022-09-04T08:01:40.336Z,99820.47
2022-09-04T08:04:28.548Z,99819.03
2022-09-04T08:08:03.220Z,99827.94
2022-09-04T08:11:19.195Z,99825.97
2022-09-04T08:14:07.627Z,99831.09
2022-09-04T08:17:05.027Z,99828.47
2022-09-04T08:20:12.188Z,99835.97
2022-09-04T08:23:11.594Z,99825.38
2022-09-04T08:26:14.086Z,99833.56
2022-09-04T08:29:37.157Z,99830.81
2022-09-04T08:32:47.186Z,99836.50
2022-09-04T08:35:34.598Z,99833.00
2022-09-04T08:38:25.915Z,99832.56
2022-09-04T08:41:29.737Z,99833.91
2022-09-04T08:44:36.639Z,99835.53
2022-09-04T08:47:57.161Z,99835.47
2022-09-04T08:50:51.104Z,99835.84
2022-09-04T08:54:01.990Z,99833.13
2022-09-04T08:56:47.857Z,99841.63
2022-09-04T09:00:01.858Z,99828.53
2022-09-04T09:02:56.134Z,99828.63
2022-09-04T09:06:10.231Z,99830.50
2022-09-04T09:09:14.408Z,99830.19
2022-09-04T09:12:40.746Z,99836.38
2022-09-04T09:15:45.243Z,99840.19
2022-09-04T09:18:48.808Z,99842.13
2022-09-04T09:21:48.789Z,99845.38
2022-09-04T09:24:45.907Z,99835.81
2022-09-04T09:27:58.751Z,99847.56
2022-09-04T09:31:29.118Z,99843.13
2022-09-04T09:34:44.524Z,99840.28
2022-09-04T09:38:13.696Z,99836.88
2022-09-04T09:41:52.842Z,99836.47
2022-09-04T09:45:09.586Z,99835.63
2022-09-04T09:48:13.420Z,99840.16
2022-09-04T09:51:17.233Z,99843.19
2022-09-04T09:54:16.148Z,99844.44
2022-09-04T09:57:21.870Z,99837.38
2022-09-04T10:00:22.293Z,99833.69
2022-09-04T10:03:28.960Z,99839.81
2022-09-04T10:06:38.975Z,99829.34
2022-09-04T10:09:34.410Z,99835.31
2022-09-04T10:12:46.139Z,99830.25
2022-09-04T10:15:55.939Z,99837.31
2022-09-04T10:18:56.574Z,99840.88
2022-09-04T10:22:00.258Z,99832.28
2022-09-04T10:25:23.585Z,99827.16
2022-09-04T10:28:40.239Z,99839.13
2022-09-04T10:31:57.784Z,99834.56
2022-09-04T10:34:54.957Z,99828.44
2022-09-04T10:38:13.920Z,99837.16
2022-09-04T10:41:34.826Z,99828.03
2022-09-04T10:44:42.486Z,99831.56
2022-09-04T10:47:52.071Z,99845.91
2022-09-04T10:51:07.699Z,99840.63
2022-09-04T10:54:08.159Z,99843.06
2022-09-04T10:57:09.249Z,99839.25
2022-09-04T11:00:00.252Z,99839.56
2022-09-04T11:03:15.874Z,99837.66
2022-09-04T11:06:25.627Z,99841.28
2022-09-04T11:09:19.614Z,99840.97
2022-09-04T11:12:47.396Z,99837.44
2022-09-04T11:15:47.041Z,99830.72
2022-09-04T11:19:10.220Z,99833.78
2022-09-04T11:22:36.592Z,99827.66
2022-09-04T11:25:37.296Z,99836.75
2022-09-04T11:28:35.600Z,99833.59
2022-09-04T11:31:53.239Z,99830.47
2022-09-04T11:34:56.935Z,99829.09
2022-09-04T11:38:13.516Z,99824.34
2022-09-04T11:41:15.403Z,99831.88
2022-09-04T11:44:27.885Z,99824.66
2022-09-04T11:47:34.829Z,99823.50
2022-09-04T11:50:37.650Z,99825.81
2022-09-04T11:53:51.948Z,99820.19
2022-09-04T11:57:12.938Z,99824.22
2022-09-04T12:00:13.580Z,99821.75
2022-09-04T12:03:13.942Z,99831.88
2022-09-04T12:06:11.774Z,99818.66
2022-09-04T12:09:28.044Z,99822.94
2022-09-04T12:12:21.966Z,99811.78
2022-09-04T12:15:40.650Z,99817.56
2022-09-04T12:18:32.975Z,99803.16
2022-09-04T12:21:24.882Z,99811.69
2022-09-04T12:24:14.902Z,99808.88
2022-09-04T12:27:24.841Z,99809.00
2022-09-04T12:30:23.171Z,99809.84
2022-09-04T12:33:27.864Z,99806.31
2022-09-04T12:36:32.996Z,99803.22
2022-09-04T12:40:08.684Z,99805.16
2022-09-04T12:43:00.193Z,99805.91
2022-09-04T12:45:58.439Z,99810.88
2022-09-04T12:49:31.361Z,99803.16
2022-09-04T12:52:38.902Z,99805.06
2022-09-04T12:55:42.008Z,99805.41
2022-09-04T12:58:59.148Z,99791.06
2022-09-04T13:02:16.262Z,99802.25
2022-09-04T13:05:14.083Z,99795.19
2022-09-04T13:08:25.822Z,99795.97
2022-09-04T13:11:33.175Z,99791.66
2022-09-04T13:14:27.047Z,99792.84
2022-09-04T13:17:42.862Z,99796.97
2022-09-04T13:20:41.018Z,99799.56
2022-09-04T13:23:37.179Z,99797.78
2022-09-04T13:26:59.086Z,99801.13
2022-09-04T13:30:20.237Z,99804.22
2022-09-04T13:33:11.662Z,99803.47
2022-09-04T13:36:18.623Z,99795.31
2022-09-04T13:39:06.805Z,99791.63
2022-09-04T13:42:19.418Z,99791.94
2022-09-04T13:45:26.421Z,99797.00
2022-09-04T13:48:18.100Z,99803.31
2022-09-04T13:51:13.499Z,99799.97
2022-09-04T13:54:05.068Z,99796.38
2022-09-04T13:57:15.115Z,99806.19
2022-09-04T14:00:06.979Z,99796.31
2022-09-04T14:03:00.268Z,99795.44
2022-09-04T14:05:45.641Z,99792.72
2022-09-04T14:08:34.288Z,99798.50
2022-09-04T14:11:34.054Z,99797.75
2022-09-04T14:14:32.763Z,99789.78
2022-09-04T14:17:26.494Z,99799.75
2022-09-04T14:20:22.620Z,99807.66
2022-09-04T14:23:27.383Z,99805.69
2022-09-04T14:26:18.888Z,99802.81
2022-09-04T14:29:32.602Z,99807.63
2022-09-04T14:32:34.548Z,99796.28
2022-09-04T14:35:35.297Z,99805.56
2022-09-04T14:38:29.751Z,99796.56
2022-09-04T14:41:20.725Z,99800.53
2022-09-04T14:44:53.808Z,99805.03
2022-09-04T14:48:05.012Z,99806.88
2022-09-04T14:50:53.129Z,99804.84
2022-09-04T14:53:46.950Z,99815.16
2022-09-04T14:56:44.590Z,99814.00
2022-09-04T14:59:38.857Z,99811.63
2022-09-04T15:02:48.997Z,99804.22
2022-09-04T15:05:48.320Z,99806.97
2022-09-04T15:08:40.845Z,99808.97
2022-09-04T15:11:34.180Z,99813.59
2022-09-04T15:14:32.400Z,99809.25
2022-09-04T15:17:27.639Z,99812.09
2022-09-04T15:20:22.148Z,99810.88
2022-09-04T15:23:32.529Z,99803.91
2022-09-04T15:26:25.524Z,99808.50
2022-09-04T15:29:33.056Z,99801.25
2022-09-04T15:32:25.622Z,99789.50
2022-09-04T15:35:22.375Z,99788.63
2022-09-04T15:38:20.462Z,99790.78
2022-09-04T15:41:26.032Z,99790.84
2022-09-04T15:44:33.662Z,99793.94
2022-09-04T15:47:41.818Z,99793.06
2022-09-04T15:50:32.045Z,99785.50
2022-09-04T15:53:49.189Z,99798.25
2022-09-04T15:56:53.194Z,99795.53
2022-09-04T15:59:48.983Z,99792.03
2022-09-04T16:02:53.917Z,99784.94
2022-09-04T16:05:56.844Z,99793.91
2022-09-04T16:08:54.407Z,99782.00
2022-09-04T16:11:48.448Z,99790.09
2022-09-04T16:14:48.183Z,99792.75
2022-09-04T16:17:42.422Z,99789.41
2022-09-04T16:20:52.299Z,99790.78
2022-09-04T16:23:40.101Z,99787.03
2022-09-04T16:26:32.774Z,99790.47
2022-09-04T16:29:24.520Z,99789.63
2022-09-04T16:32:19.654Z,99793.91
2022-09-04T16:35:18.938Z,99786.25
2022-09-04T16:38:25.648Z,99798.75
2022-09-04T16:41:13.545Z,99798.09
2022-09-04T16:44:14.279Z,99796.41
2022-09-04T16:47:04.235Z,99800.97
2022-09-04T16:49:58.940Z,99792.28
2022-09-04T16:53:22.768Z,99792.44
2022-09-04T16:56:40.201Z,99799.38
2022-09-04T16:59:25.421Z,99806.84
2022-09-04T17:02:23.172Z,99814.88
2022-09-04T17:05:39.440Z,99810.44
2022-09-04T17:08:42.807Z,99814.59
2022-09-04T17:11:27.409Z,99819.34
2022-09-04T17:14:39.685Z,99824.16
2022-09-04T17:17:31.430Z,99823.72
2022-09-04T17:21:18.429Z,99821.50
2022-09-04T17:28:57.159Z,99822.09
2022-09-04T17:29:16.209Z,99828.09
2022-09-04T17:30:28.898Z,99833.50
2022-09-04T17:40:34.605Z,99843.09
2022-09-04T17:40:47.149Z,99840.41
2022-09-04T17:40:50.971Z,99842.41
2022-09-04T17:43:41.352Z,99851.63
2022-09-04T17:46:57.870Z,99847.03
2022-09-04T17:49:47.658Z,99842.50
2022-09-04T17:52:59.495Z,99841.81
2022-09-04T17:55:47.289Z,99839.69
2022-09-04T17:58:39.951Z,99843.06
2022-09-04T18:01:33.122Z,99838.97
2022-09-04T18:04:34.339Z,99854.94
2022-09-04T18:08:10.051Z,99850.22
2022-09-04T18:10:48.987Z,99852.69
2022-09-04T18:13:51.556Z,99858.72
2022-09-04T18:16:38.968Z,99859.25
2022-09-04T18:19:46.724Z,99863.66
2022-09-04T18:22:59.375Z,99867.00
2022-09-04T18:25:51.690Z,99869.94
2022-09-04T18:28:47.311Z,99868.31
2022-09-04T18:37:25.492Z,99867.47
2022-09-04T18:37:27.099Z,99872.47
2022-09-04T18:38:20.090Z,99869.75
2022-09-04T18:49:00.336Z,99871.84
2022-09-04T18:50:33.815Z,99876.25
2022-09-04T18:50:34.794Z,99874.03
2022-09-04T18:51:20.100Z,99874.13
2022-09-04T18:54:11.723Z,99881.69
2022-09-04T18:57:06.496Z,99880.53
2022-09-04T19:00:09.513Z,99874.66
2022-09-04T19:03:09.889Z,99883.25
2022-09-04T19:06:04.726Z,99879.53
2022-09-04T19:08:55.715Z,99880.69
2022-09-04T19:12:07.644Z,99881.72
2022-09-04T19:14:55.265Z,99886.09
2022-09-04T19:17:42.033Z,99880.94
2022-09-04T19:20:36.326Z,99885.09
2022-09-04T19:23:53.052Z,99880.09
2022-09-04T19:26:53.726Z,99889.63
2022-09-04T19:30:18.857Z,99883.72
2022-09-04T19:33:16.172Z,99885.97
2022-09-04T19:36:08.827Z,99883.22
2022-09-04T19:46:08.069Z,99890.63
2022-09-04T19:46:16.093Z,99882.88
2022-09-04T19:46:28.205Z,99886.03
2022-09-04T19:52:30.384Z,99887.81
2022-09-04T19:53:33.499Z,99882.88
2022-09-04T19:55:45.932Z,99887.25
2022-09-04T19:58:39.554Z,99881.09
2022-09-04T20:01:49.912Z,99889.41
2022-09-04T20:04:46.464Z,99886.81
2022-09-04T20:07:46.801Z,99891.56
2022-09-04T20:10:37.798Z,99885.81
2022-09-04T20:13:48.219Z,99885.81
2022-09-04T20:16:47.706Z,99887.78
2022-09-04T20:19:40.856Z,99882.03
2022-09-04T20:22:25.875Z,99886.75
2022-09-04T20:25:16.739Z,99892.94
2022-09-04T20:28:45.350Z,99889.75
2022-09-04T20:31:44.682Z,99890.19
2022-09-04T20:34:39.953Z,99884.44
2022-09-04T20:37:31.285Z,99885.47
2022-09-04T20:40:34.691Z,99891.97
2022-09-04T20:43:19.387Z,99892.78
2022-09-04T20:52:42.317Z,99895.34
2022-09-04T20:52:52.601Z,99894.56
2022-09-04T20:53:06.168Z,99897.72
2022-09-04T20:55:58.676Z,99902.44
2022-09-04T21:03:14.434Z,99903.81
2022-09-04T21:03:17.612Z,99900.25
2022-09-04T21:05:54.290Z,99904.38
2022-09-04T21:09:02.409Z,99903.41
2022-09-04T21:12:05.265Z,99898.25
2022-09-04T21:14:57.953Z,99899.81
2022-09-04T21:18:18.881Z,99894.22
2022-09-04T21:21:23.971Z,99896.19
2022-09-04T21:24:41.440Z,99893.34
2022-09-04T21:27:52.275Z,99899.44
2022-09-04T21:30:52.716Z,99895.88
2022-09-04T21:33:49.598Z,99894.28
2022-09-04T21:36:59.111Z,99890.72
2022-09-04T21:40:50.796Z,99895.44
2022-09-04T21:44:11.369Z,99894.44
2022-09-04T21:47:08.388Z,99892.78
2022-09-04T21:50:09.232Z,99887.22
2022-09-04T21:53:19.463Z,99886.00
2022-09-04T22:01:14.050Z,99883.22
2022-09-04T22:02:35.357Z,99888.16
2022-09-04T22:03:21.223Z,99891.94
2022-09-04T22:07:36.267Z,99884.00
2022-09-04T22:13:32.584Z,99892.09
2022-09-04T22:13:39.072Z,99894.41
2022-09-04T22:16:36.074Z,99894.91
2022-09-04T22:19:45.773Z,99897.06
2022-09-04T22:22:55.263Z,99896.06
2022-09-04T22:25:47.622Z,99897.41
2022-09-04T22:28:35.766Z,99895.63
2022-09-04T22:31:21.833Z,99900.38
2022-09-04T22:34:39.150Z,99903.50
2022-09-04T22:37:29.903Z,99904.88
2022-09-04T22:40:32.224Z,99898.06
2022-09-04T22:43:25.435Z,99899.19
2022-09-04T22:46:49.810Z,99903.88
2022-09-04T22:50:16.464Z,99892.66
2022-09-04T22:53:27.261Z,99894.63
2022-09-04T22:56:24.421Z,99890.44
2022-09-04T22:59:33.539Z,99882.69
2022-09-04T23:09:07.367Z,99882.78
2022-09-04T23:13:51.608Z,99878.72
2022-09-04T23:13:58.766Z,99878.56
2022-09-04T23:16:28.662Z,99884.59
2022-09-04T23:23:07.697Z,99884.03
2022-09-04T23:26:38.230Z,99877.06
2022-09-04T23:26:53.270Z,99875.06
2022-09-04T23:29:34.666Z,99875.84
2022-09-04T23:32:26.448Z,99878.41
2022-09-04T23:35:15.778Z,99875.06
2022-09-04T23:38:38.951Z,99873.25
2022-09-04T23:41:33.160Z,99871.69
2022-09-04T23:44:49.349Z,99874.03
2022-09-04T23:47:53.590Z,99880.00
2022-09-04T23:50:46.518Z,99873.25
2022-09-04T23:53:44.146Z,99875.84
2022-09-04T23:56:42.953Z,99871.69
2022-09-04T23:59:55.733Z,99872.50
